Skip to Main Content
SEARCH:
Location Air RH Dwp Precip Type Wind Speed Wind Gust Direction Pavement Temperature Date/Time
Hatem Bridge US 40 E/B 51 50 33 None 4 mph 6 mph W 47 - 47 4/21/2018 10:56:00 PM
I-270 at I-370 53 37 28 None Calm Calm SE 58 - 58 4/21/2018 10:55:00 PM
I-270 at MD-109 46 58 32 None Calm Calm E 53 - 53 4/21/2018 10:55:00 PM
I-495 at American Legion Bridge 49 56 34 None Calm Calm N 56 - 57 4/21/2018 10:55:00 PM
I-68 at Savage Mt 43 42 22 None Calm Calm W 48 - 50 4/21/2018 10:55:00 PM
I-68 at Sideling Hill 48 47 29 None Calm Calm NW 53 - 54 4/21/2018 10:55:00 PM
I-68 at US 219 44 38 20 None 4 mph 8 mph E 51 - 51 4/21/2018 10:55:00 PM
I-68 at WV Line 44 55 29 None Calm Calm NW 51 - 52 4/21/2018 10:55:00 PM
I-695 at I-83 45 59 32 None Calm Calm N 52 - 54 4/21/2018 10:55:00 PM
I-695 on FSK Bridge 51 50 33 None 5 mph 7 mph N 49 - 49 4/21/2018 10:56:00 PM
I-70 at Fred-Wash Co. 50 37 25 None Calm Calm E 53 - 53 4/21/2018 10:55:00 PM
I-70 at I-695 46 60 33 None Calm 6 mph SW 53 - 55 4/21/2018 10:55:00 PM
I-70 at I-81 48 51 31 None Calm Calm E - 4/21/2018 10:55:00 PM
I-70 at MD-27 48 47 29 None Calm Calm N 52 - 53 4/21/2018 10:55:00 PM
I-70 at MD-32 41 67 31 None Calm Calm NE 53 - 53 4/21/2018 10:55:00 PM
I-83 at MD-137 50 47 31 None Calm Calm SE 55 - 55 4/21/2018 10:55:00 PM
I-95 at I-695 NE 48 56 33 None Calm Calm NW 53 - 54 4/21/2018 10:56:00 PM
I-95 at Patuxent River 49 65 38 None Calm 5 mph NE 56 - 56 4/21/2018 10:55:00 PM
I-95 at Tydings Bridge 51 51 34 None Calm 8 mph S - 4/21/2018 10:55:00 PM
I-95/495 at I-295 57 42 35 None Calm Calm N 58 - 58 4/21/2018 10:55:00 PM
I-97 at MD-100 50 51 33 None 5 mph 8 mph S 55 - 55 4/21/2018 10:55:00 PM
I-97 at MD-32 49 55 34 None 6 mph 7 mph N 56 - 57 4/21/2018 10:55:00 PM
IS 70 W of I-270 - - - No Data Available - - No Data Available 54 - 54 4/21/2018 10:55:00 PM
MD 20 at MD 21 44 73 36 None Calm Calm N 54 - 54 4/21/2018 10:55:00 PM
MD 23 at Meadowtree Road 49 42 27 No Data Available Calm Calm E 56 - 56 4/21/2018 10:55:00 PM
MD 231 at Patuxent River 50 69 40 None 6 mph 8 mph S 55 - 55 4/21/2018 10:55:00 PM
MD 24 at Jarrettsville Road 48 58 34 No Data Available Calm Calm SW 58 - 58 4/21/2018 10:55:00 PM
MD 260 at Cox Rd 49 58 35 None Calm Calm SW 58 - 58 4/21/2018 10:55:00 PM
MD-135 at Salt Dome 45 39 22 None Calm 4 mph N 54 - 54 4/21/2018 10:55:00 PM
MD-140 at MD-97 46 53 30 None Calm Calm S 52 - 54 4/21/2018 10:55:00 PM
MD-200 EB at Bonifant Rd 48 54 32 None Calm Calm N 51 - 54 4/21/2018 10:56:00 PM
MD-200 WB at Muncaster Mill Rd 45 51 28 None Calm Calm N 51 - 53 4/21/2018 10:56:00 PM
MD-213 at Sassafras River 48 61 35 None Calm Calm SW 53 - 53 4/21/2018 10:55:00 PM
MD-24 at Rock St Park 45 74 38 None Calm Calm N 53 - 53 4/21/2018 10:55:00 PM
MD-30 at PA Line 51 43 29 None Calm 4 mph SE 55 - 55 4/21/2018 10:55:00 PM
MD-33 at Knapps Narrows Drawbridge 50 71 41 None Calm 8 mph S 58 - 58 4/21/2018 10:55:00 PM
MD-344 at MD-224 48 66 38 None Calm Calm SE 63 - 63 4/21/2018 10:55:00 PM
MD-4 at Patuxent River 48 70 39 None 8 mph 8 mph SE 51 - 55 4/21/2018 10:56:00 PM
MD-404 at Choptank River 44 69 35 None Calm Calm W 53 - 54 4/21/2018 10:55:00 PM
MD-43 at MD-150 47 62 35 None Calm Calm N 54 - 55 4/21/2018 10:55:00 PM
MD-51 at Oldtown Salt Dome 44 68 35 None Calm Calm W 56 - 56 4/21/2018 10:55:00 PM
MD-64 at MD-418 46 55 31 None Calm Calm N 56 - 57 4/21/2018 10:55:00 PM
US 301 at MD 305 44 65 33 None Calm Calm N 52 - 54 4/21/2018 10:55:00 PM
US-1 at Baltimore / Harford Co. Line 43 79 37 None Calm Calm NW 51 - 52 4/21/2018 10:55:00 PM
US-1 at Conowingo Dam 50 57 35 None Calm Calm SE 55 - 55 4/21/2018 10:55:00 PM
US-13 at US-113 44 76 37 None 4 mph 6 mph S 56 - 57 4/21/2018 10:55:00 PM
US-13 at US-50 44 75 36 None Calm 5 mph S 52 - 52 4/21/2018 10:55:00 PM
US-15 at MD-140 43 73 35 None Calm Calm N 54 - 54 4/21/2018 10:55:00 PM
US-301 at MD-5 49 62 36 None Calm Calm SE 58 - 58 4/21/2018 10:55:00 PM
US-301 at Potomac 54 63 41 None 6 mph 11 mph SE 51 - 57 4/21/2018 10:56:00 PM
US-340 at MD-180 43 67 33 None Calm Calm N 55 - 55 4/21/2018 10:55:00 PM
US-50 at Choptank 50 73 42 None Calm 5 mph S 54 - 54 4/21/2018 10:55:00 PM
US-50 at I-95 52 52 35 None Calm Calm NE 58 - 59 4/21/2018 10:55:00 PM
US-50 at MD-2 50 71 41 None 4 mph 5 mph S 53 - 57 4/21/2018 10:55:00 PM
US-50 at MD-331 47 68 37 None Calm Calm SW 52 - 62 4/21/2018 10:55:00 PM
US-50 at OC Drawbridge 47 84 42 None Calm 8 mph S 52 - 52 4/21/2018 10:55:00 PM
US-50 at Table Rock Rd 45 37 21 None Calm 4 mph E 54 - 54 4/21/2018 10:55:00 PM
US-50 Kent Narrow Bridge 49 82 44 None 4 mph 5 mph S 54 - 54 4/21/2018 10:55:00 PM
WPL Pier 31 50 70 40 None Calm 8 mph SE 51 - 51 4/21/2018 10:56:00 PM
Location Air RH Dwp Precip Type Wind Speed Wind Gust Direction Pavement Temperature Date/Time